Terminal Aerodrome Forecast
Issued by NWS Des Moines, IA

Home | Current Version | Previous Version | Text Only | Print | Product List | Glossary On
Versions: 1 2 3 4 5 6 7 8 9 10 11 12 13 14
000
FTUS43 KDMX 171128
TAFALO
TAF
KALO 171128Z 1712/1812 28013KT P6SM OVC010
     FM171500 31014KT P6SM BKN025
     FM171900 31010KT P6SM SCT025 BKN200
     FM180100 VRB04KT P6SM FEW200=

USA.gov is the U.S. government's official web portal to all federal, state and local government web resources and services.